Terminal Aerodrome Forecast
Issued by NWS Omaha/Valley, NE

Home | Current Version | Previous Version | Text Only | Print | Product List | Glossary On
Versions: 1 2 3 4 5 6 7 8 9 10 11 12 13
000
FTUS43 KOAX 232320
TAFOMA
TAF
KOMA 232320Z 2400/2424 16007KT P6SM BKN250
     FM240800 17008KT P6SM FEW250
     FM241600 22013KT P6SM FEW250
     FM241800 25012KT P6SM FEW250
     FM242000 31019G28KT P6SM BKN090=

USA.gov is the U.S. government's official web portal to all federal, state and local government web resources and services.